sensor_id;sensor_type;location;lat;lon;timestamp;P1;durP1;ratioP1;P2;durP2;ratioP2
54167;SDS011;40072;50.958;3.592;2022-09-25T00:00:11;13.88;;;4.07;;
54167;SDS011;40072;50.958;3.592;2022-09-25T00:02:37;14.50;;;3.85;;
54167;SDS011;40072;50.958;3.592;2022-09-25T00:05:03;16.95;;;4.25;;
54167;SDS011;40072;50.958;3.592;2022-09-25T00:07:29;16.45;;;3.95;;
54167;SDS011;40072;50.958;3.592;2022-09-25T00:09:55;16.98;;;4.00;;
54167;SDS011;40072;50.958;3.592;2022-09-25T00:12:20;11.45;;;4.53;;
54167;SDS011;40072;50.958;3.592;2022-09-25T00:14:50;15.45;;;3.90;;
54167;SDS011;40072;50.958;3.592;2022-09-25T00:17:16;9.02;;;3.95;;
54167;SDS011;40072;50.958;3.592;2022-09-25T00:19:41;19.88;;;4.05;;
54167;SDS011;40072;50.958;3.592;2022-09-25T00:22:16;12.70;;;4.22;;
54167;SDS011;40072;50.958;3.592;2022-09-25T00:24:43;9.90;;;3.55;;
54167;SDS011;40072;50.958;3.592;2022-09-25T00:27:09;13.52;;;4.32;;
54167;SDS011;40072;50.958;3.592;2022-09-25T00:29:36;15.43;;;4.50;;
54167;SDS011;40072;50.958;3.592;2022-09-25T00:32:03;10.60;;;3.33;;
54167;SDS011;40072;50.958;3.592;2022-09-25T00:34:33;10.90;;;3.22;;
54167;SDS011;40072;50.958;3.592;2022-09-25T00:36:59;14.02;;;3.60;;
54167;SDS011;40072;50.958;3.592;2022-09-25T00:39:24;11.02;;;3.47;;
54167;SDS011;40072;50.958;3.592;2022-09-25T00:41:51;11.52;;;4.00;;
54167;SDS011;40072;50.958;3.592;2022-09-25T00:47:16;10.18;;;4.13;;
54167;SDS011;40072;50.958;3.592;2022-09-25T00:49:46;17.38;;;3.75;;
54167;SDS011;40072;50.958;3.592;2022-09-25T00:52:12;14.40;;;4.05;;
54167;SDS011;40072;50.958;3.592;2022-09-25T00:54:39;14.73;;;4.35;;
54167;SDS011;40072;50.958;3.592;2022-09-25T00:57:12;13.65;;;4.38;;
54167;SDS011;40072;50.958;3.592;2022-09-25T00:59:42;14.30;;;4.53;;
54167;SDS011;40072;50.958;3.592;2022-09-25T01:02:13;19.25;;;4.18;;
54167;SDS011;40072;50.958;3.592;2022-09-25T01:04:44;15.85;;;4.60;;
54167;SDS011;40072;50.958;3.592;2022-09-25T01:07:12;17.02;;;4.28;;
54167;SDS011;40072;50.958;3.592;2022-09-25T01:09:38;20.75;;;4.20;;
54167;SDS011;40072;50.958;3.592;2022-09-25T01:12:05;13.85;;;4.25;;
54167;SDS011;40072;50.958;3.592;2022-09-25T01:14:31;12.95;;;4.07;;
54167;SDS011;40072;50.958;3.592;2022-09-25T01:20:39;10.15;;;3.88;;
54167;SDS011;40072;50.958;3.592;2022-09-25T01:23:48;11.77;;;4.68;;
54167;SDS011;40072;50.958;3.592;2022-09-25T01:26:47;11.18;;;3.83;;
54167;SDS011;40072;50.958;3.592;2022-09-25T01:32:37;20.52;;;4.07;;
54167;SDS011;40072;50.958;3.592;2022-09-25T01:40:13;14.98;;;4.10;;
54167;SDS011;40072;50.958;3.592;2022-09-25T01:42:51;23.50;;;4.85;;
54167;SDS011;40072;50.958;3.592;2022-09-25T01:45:23;10.52;;;4.65;;
54167;SDS011;40072;50.958;3.592;2022-09-25T01:47:57;19.17;;;4.70;;
54167;SDS011;40072;50.958;3.592;2022-09-25T01:50:36;11.20;;;4.55;;
54167;SDS011;40072;50.958;3.592;2022-09-25T01:53:11;17.10;;;5.60;;
54167;SDS011;40072;50.958;3.592;2022-09-25T01:55:45;10.30;;;4.30;;
54167;SDS011;40072;50.958;3.592;2022-09-25T02:00:45;19.08;;;4.38;;
54167;SDS011;40072;50.958;3.592;2022-09-25T02:03:19;14.80;;;4.32;;
54167;SDS011;40072;50.958;3.592;2022-09-25T02:05:53;15.77;;;4.43;;
54167;SDS011;40072;50.958;3.592;2022-09-25T02:08:23;13.48;;;4.65;;
54167;SDS011;40072;50.958;3.592;2022-09-25T02:10:54;13.02;;;4.30;;
54167;SDS011;40072;50.958;3.592;2022-09-25T02:13:25;10.95;;;4.63;;
54167;SDS011;40072;50.958;3.592;2022-09-25T02:16:20;11.82;;;4.65;;
54167;SDS011;40072;50.958;3.592;2022-09-25T02:18:49;12.20;;;4.30;;
54167;SDS011;40072;50.958;3.592;2022-09-25T02:21:54;15.93;;;4.40;;
54167;SDS011;40072;50.958;3.592;2022-09-25T02:26:54;17.23;;;4.78;;
54167;SDS011;40072;50.958;3.592;2022-09-25T02:29:20;11.48;;;4.63;;
54167;SDS011;40072;50.958;3.592;2022-09-25T02:31:57;13.15;;;5.10;;
54167;SDS011;40072;50.958;3.592;2022-09-25T02:34:27;21.52;;;5.72;;
54167;SDS011;40072;50.958;3.592;2022-09-25T02:36:53;16.63;;;4.93;;
54167;SDS011;40072;50.958;3.592;2022-09-25T02:39:21;14.93;;;4.70;;
54167;SDS011;40072;50.958;3.592;2022-09-25T02:50:56;13.38;;;5.03;;
54167;SDS011;40072;50.958;3.592;2022-09-25T02:53:35;18.60;;;6.45;;
54167;SDS011;40072;50.958;3.592;2022-09-25T02:59:00;15.60;;;5.28;;
54167;SDS011;40072;50.958;3.592;2022-09-25T03:01:30;13.80;;;5.38;;
54167;SDS011;40072;50.958;3.592;2022-09-25T03:03:59;20.50;;;5.28;;
54167;SDS011;40072;50.958;3.592;2022-09-25T03:06:27;14.77;;;5.22;;
54167;SDS011;40072;50.958;3.592;2022-09-25T03:08:55;15.05;;;5.40;;
54167;SDS011;40072;50.958;3.592;2022-09-25T03:11:23;17.05;;;6.15;;
54167;SDS011;40072;50.958;3.592;2022-09-25T03:13:59;14.00;;;5.55;;
54167;SDS011;40072;50.958;3.592;2022-09-25T03:16:31;13.98;;;5.00;;
54167;SDS011;40072;50.958;3.592;2022-09-25T03:19:10;15.52;;;5.70;;
54167;SDS011;40072;50.958;3.592;2022-09-25T03:21:36;15.60;;;5.28;;
54167;SDS011;40072;50.958;3.592;2022-09-25T03:24:02;11.48;;;4.63;;
54167;SDS011;40072;50.958;3.592;2022-09-25T03:26:28;13.10;;;5.30;;
54167;SDS011;40072;50.958;3.592;2022-09-25T03:28:54;13.70;;;5.75;;
54167;SDS011;40072;50.958;3.592;2022-09-25T03:31:20;20.67;;;5.78;;
54167;SDS011;40072;50.958;3.592;2022-09-25T03:33:46;12.70;;;5.32;;
54167;SDS011;40072;50.958;3.592;2022-09-25T03:38:40;7.47;;;4.70;;
54167;SDS011;40072;50.958;3.592;2022-09-25T03:41:07;17.92;;;5.20;;
54167;SDS011;40072;50.958;3.592;2022-09-25T03:43:35;8.15;;;5.13;;
54167;SDS011;40072;50.958;3.592;2022-09-25T03:46:02;11.73;;;5.70;;
54167;SDS011;40072;50.958;3.592;2022-09-25T03:48:32;13.20;;;5.45;;
54167;SDS011;40072;50.958;3.592;2022-09-25T03:50:58;21.35;;;5.07;;
54167;SDS011;40072;50.958;3.592;2022-09-25T03:53:25;9.63;;;4.93;;
54167;SDS011;40072;50.958;3.592;2022-09-25T03:55:51;9.18;;;4.80;;
54167;SDS011;40072;50.958;3.592;2022-09-25T03:58:18;16.60;;;5.45;;
54167;SDS011;40072;50.958;3.592;2022-09-25T04:00:44;6.15;;;4.65;;
54167;SDS011;40072;50.958;3.592;2022-09-25T04:03:14;8.38;;;4.63;;
54167;SDS011;40072;50.958;3.592;2022-09-25T04:05:40;9.85;;;5.28;;
54167;SDS011;40072;50.958;3.592;2022-09-25T04:08:07;9.75;;;5.57;;
54167;SDS011;40072;50.958;3.592;2022-09-25T04:10:34;9.20;;;5.32;;
54167;SDS011;40072;50.958;3.592;2022-09-25T04:13:06;10.93;;;5.38;;
54167;SDS011;40072;50.958;3.592;2022-09-25T04:15:33;8.65;;;4.70;;
54167;SDS011;40072;50.958;3.592;2022-09-25T04:17:59;10.43;;;4.72;;
54167;SDS011;40072;50.958;3.592;2022-09-25T04:20:25;10.05;;;5.03;;
54167;SDS011;40072;50.958;3.592;2022-09-25T04:22:51;8.80;;;4.78;;
54167;SDS011;40072;50.958;3.592;2022-09-25T04:25:17;16.60;;;6.18;;
54167;SDS011;40072;50.958;3.592;2022-09-25T04:27:45;8.38;;;5.25;;
54167;SDS011;40072;50.958;3.592;2022-09-25T04:30:11;8.98;;;5.10;;
54167;SDS011;40072;50.958;3.592;2022-09-25T04:32:37;11.73;;;5.03;;
54167;SDS011;40072;50.958;3.592;2022-09-25T04:35:21;10.68;;;4.85;;
54167;SDS011;40072;50.958;3.592;2022-09-25T04:37:47;12.65;;;5.43;;
54167;SDS011;40072;50.958;3.592;2022-09-25T04:40:13;7.78;;;5.00;;
54167;SDS011;40072;50.958;3.592;2022-09-25T04:42:39;13.82;;;4.97;;
54167;SDS011;40072;50.958;3.592;2022-09-25T04:45:07;7.85;;;4.85;;
54167;SDS011;40072;50.958;3.592;2022-09-25T04:47:33;9.55;;;5.43;;
54167;SDS011;40072;50.958;3.592;2022-09-25T04:49:59;8.90;;;5.22;;
54167;SDS011;40072;50.958;3.592;2022-09-25T04:52:24;11.80;;;5.13;;
54167;SDS011;40072;50.958;3.592;2022-09-25T04:54:52;11.00;;;5.70;;
54167;SDS011;40072;50.958;3.592;2022-09-25T04:57:19;16.55;;;6.15;;
54167;SDS011;40072;50.958;3.592;2022-09-25T04:59:45;10.52;;;5.55;;
54167;SDS011;40072;50.958;3.592;2022-09-25T05:02:13;8.27;;;5.32;;
54167;SDS011;40072;50.958;3.592;2022-09-25T05:04:38;12.98;;;5.95;;
54167;SDS011;40072;50.958;3.592;2022-09-25T05:07:04;15.65;;;5.30;;
54167;SDS011;40072;50.958;3.592;2022-09-25T05:09:30;9.05;;;5.38;;
54167;SDS011;40072;50.958;3.592;2022-09-25T05:11:56;14.35;;;5.43;;
54167;SDS011;40072;50.958;3.592;2022-09-25T05:14:22;13.93;;;5.55;;
54167;SDS011;40072;50.958;3.592;2022-09-25T05:16:49;17.88;;;6.50;;
54167;SDS011;40072;50.958;3.592;2022-09-25T05:19:15;15.88;;;5.47;;
54167;SDS011;40072;50.958;3.592;2022-09-25T05:21:41;12.02;;;4.68;;
54167;SDS011;40072;50.958;3.592;2022-09-25T05:24:07;11.20;;;5.25;;
54167;SDS011;40072;50.958;3.592;2022-09-25T05:26:37;13.98;;;5.30;;
54167;SDS011;40072;50.958;3.592;2022-09-25T05:29:03;9.10;;;5.03;;
54167;SDS011;40072;50.958;3.592;2022-09-25T05:31:29;14.13;;;5.32;;
54167;SDS011;40072;50.958;3.592;2022-09-25T05:33:56;14.38;;;5.28;;
54167;SDS011;40072;50.958;3.592;2022-09-25T05:36:21;8.65;;;5.82;;
54167;SDS011;40072;50.958;3.592;2022-09-25T05:38:47;13.15;;;5.65;;
54167;SDS011;40072;50.958;3.592;2022-09-25T05:41:13;20.45;;;5.90;;
54167;SDS011;40072;50.958;3.592;2022-09-25T05:43:40;18.77;;;6.45;;
54167;SDS011;40072;50.958;3.592;2022-09-25T05:46:07;12.35;;;5.40;;
54167;SDS011;40072;50.958;3.592;2022-09-25T05:48:34;11.88;;;5.75;;
54167;SDS011;40072;50.958;3.592;2022-09-25T05:51:00;11.93;;;5.85;;
54167;SDS011;40072;50.958;3.592;2022-09-25T05:53:27;16.27;;;5.72;;
54167;SDS011;40072;50.958;3.592;2022-09-25T05:55:55;15.73;;;5.93;;
54167;SDS011;40072;50.958;3.592;2022-09-25T05:58:25;16.60;;;6.80;;
54167;SDS011;40072;50.958;3.592;2022-09-25T06:00:51;17.63;;;5.90;;
54167;SDS011;40072;50.958;3.592;2022-09-25T06:03:18;22.95;;;7.03;;
54167;SDS011;40072;50.958;3.592;2022-09-25T06:05:45;11.48;;;5.85;;
54167;SDS011;40072;50.958;3.592;2022-09-25T06:08:11;14.45;;;6.10;;
54167;SDS011;40072;50.958;3.592;2022-09-25T06:10:41;9.43;;;5.60;;
54167;SDS011;40072;50.958;3.592;2022-09-25T06:13:07;11.43;;;6.05;;
54167;SDS011;40072;50.958;3.592;2022-09-25T06:15:36;10.35;;;5.60;;
54167;SDS011;40072;50.958;3.592;2022-09-25T06:18:04;11.27;;;6.38;;
54167;SDS011;40072;50.958;3.592;2022-09-25T06:20:31;15.00;;;6.18;;
54167;SDS011;40072;50.958;3.592;2022-09-25T06:22:57;10.70;;;6.25;;
54167;SDS011;40072;50.958;3.592;2022-09-25T06:25:24;12.15;;;6.95;;
54167;SDS011;40072;50.958;3.592;2022-09-25T06:27:55;10.73;;;6.22;;
54167;SDS011;40072;50.958;3.592;2022-09-25T06:30:22;11.40;;;6.68;;
54167;SDS011;40072;50.958;3.592;2022-09-25T06:32:57;11.38;;;6.70;;
54167;SDS011;40072;50.958;3.592;2022-09-25T06:35:27;11.35;;;6.35;;
54167;SDS011;40072;50.958;3.592;2022-09-25T06:37:59;14.52;;;6.60;;
54167;SDS011;40072;50.958;3.592;2022-09-25T06:40:27;17.95;;;7.28;;
54167;SDS011;40072;50.958;3.592;2022-09-25T06:42:59;13.03;;;7.40;;
54167;SDS011;40072;50.958;3.592;2022-09-25T06:45:27;14.43;;;6.30;;
54167;SDS011;40072;50.958;3.592;2022-09-25T06:48:04;16.77;;;7.07;;
54167;SDS011;40072;50.958;3.592;2022-09-25T06:50:43;16.83;;;7.20;;
54167;SDS011;40072;50.958;3.592;2022-09-25T06:53:11;15.63;;;6.53;;
54167;SDS011;40072;50.958;3.592;2022-09-25T06:55:38;16.65;;;6.38;;
54167;SDS011;40072;50.958;3.592;2022-09-25T06:58:05;13.45;;;6.95;;
54167;SDS011;40072;50.958;3.592;2022-09-25T07:00:32;18.00;;;6.55;;
54167;SDS011;40072;50.958;3.592;2022-09-25T07:02:59;12.68;;;6.97;;
54167;SDS011;40072;50.958;3.592;2022-09-25T07:05:43;9.88;;;6.85;;
54167;SDS011;40072;50.958;3.592;2022-09-25T07:08:11;14.02;;;6.68;;
54167;SDS011;40072;50.958;3.592;2022-09-25T07:10:45;10.73;;;6.50;;
54167;SDS011;40072;50.958;3.592;2022-09-25T07:13:12;11.32;;;5.72;;
54167;SDS011;40072;50.958;3.592;2022-09-25T07:15:37;17.98;;;5.63;;
54167;SDS011;40072;50.958;3.592;2022-09-25T07:18:03;18.33;;;5.65;;
54167;SDS011;40072;50.958;3.592;2022-09-25T07:20:29;14.55;;;5.30;;
54167;SDS011;40072;50.958;3.592;2022-09-25T07:22:59;13.05;;;5.72;;
54167;SDS011;40072;50.958;3.592;2022-09-25T07:25:28;14.65;;;4.95;;
54167;SDS011;40072;50.958;3.592;2022-09-25T07:27:56;12.93;;;4.80;;
54167;SDS011;40072;50.958;3.592;2022-09-25T07:30:22;10.95;;;5.05;;
54167;SDS011;40072;50.958;3.592;2022-09-25T07:32:50;14.05;;;5.03;;
54167;SDS011;40072;50.958;3.592;2022-09-25T07:35:16;14.98;;;4.72;;
54167;SDS011;40072;50.958;3.592;2022-09-25T07:37:43;17.08;;;4.70;;
54167;SDS011;40072;50.958;3.592;2022-09-25T07:40:08;10.05;;;4.55;;
54167;SDS011;40072;50.958;3.592;2022-09-25T07:42:38;14.05;;;4.60;;
54167;SDS011;40072;50.958;3.592;2022-09-25T07:45:04;10.68;;;4.03;;
54167;SDS011;40072;50.958;3.592;2022-09-25T07:47:29;11.50;;;4.25;;
54167;SDS011;40072;50.958;3.592;2022-09-25T07:49:55;9.55;;;4.20;;
54167;SDS011;40072;50.958;3.592;2022-09-25T07:52:22;14.20;;;3.88;;
54167;SDS011;40072;50.958;3.592;2022-09-25T07:54:48;12.27;;;4.32;;
54167;SDS011;40072;50.958;3.592;2022-09-25T07:57:14;10.65;;;3.60;;
54167;SDS011;40072;50.958;3.592;2022-09-25T07:59:40;8.02;;;2.97;;
54167;SDS011;40072;50.958;3.592;2022-09-25T08:02:07;13.60;;;3.53;;
54167;SDS011;40072;50.958;3.592;2022-09-25T08:04:33;15.93;;;3.53;;
54167;SDS011;40072;50.958;3.592;2022-09-25T08:06:58;8.27;;;3.22;;
54167;SDS011;40072;50.958;3.592;2022-09-25T08:09:24;14.38;;;3.78;;
54167;SDS011;40072;50.958;3.592;2022-09-25T08:11:50;12.30;;;3.85;;
54167;SDS011;40072;50.958;3.592;2022-09-25T08:14:15;10.50;;;3.72;;
54167;SDS011;40072;50.958;3.592;2022-09-25T08:16:42;13.18;;;4.30;;
54167;SDS011;40072;50.958;3.592;2022-09-25T08:19:09;11.18;;;4.22;;
54167;SDS011;40072;50.958;3.592;2022-09-25T08:21:35;7.82;;;4.05;;
54167;SDS011;40072;50.958;3.592;2022-09-25T08:24:01;13.85;;;4.68;;
54167;SDS011;40072;50.958;3.592;2022-09-25T08:26:27;8.57;;;3.22;;
54167;SDS011;40072;50.958;3.592;2022-09-25T08:28:53;20.15;;;3.58;;
54167;SDS011;40072;50.958;3.592;2022-09-25T08:31:19;10.75;;;3.65;;
54167;SDS011;40072;50.958;3.592;2022-09-25T08:33:46;5.70;;;2.90;;
54167;SDS011;40072;50.958;3.592;2022-09-25T08:36:13;11.98;;;3.30;;
54167;SDS011;40072;50.958;3.592;2022-09-25T08:38:40;5.82;;;2.67;;
54167;SDS011;40072;50.958;3.592;2022-09-25T08:41:08;7.72;;;2.42;;
54167;SDS011;40072;50.958;3.592;2022-09-25T08:43:59;7.97;;;2.95;;
54167;SDS011;40072;50.958;3.592;2022-09-25T08:46:45;10.63;;;2.97;;
54167;SDS011;40072;50.958;3.592;2022-09-25T08:49:40;16.08;;;3.08;;
54167;SDS011;40072;50.958;3.592;2022-09-25T08:52:17;12.98;;;3.30;;
54167;SDS011;40072;50.958;3.592;2022-09-25T08:54:45;7.82;;;2.20;;
54167;SDS011;40072;50.958;3.592;2022-09-25T08:57:27;10.15;;;2.63;;
54167;SDS011;40072;50.958;3.592;2022-09-25T09:00:04;7.38;;;2.22;;
54167;SDS011;40072;50.958;3.592;2022-09-25T09:02:43;5.43;;;2.28;;
54167;SDS011;40072;50.958;3.592;2022-09-25T09:05:17;8.82;;;2.10;;
54167;SDS011;40072;50.958;3.592;2022-09-25T09:07:59;7.45;;;2.00;;
54167;SDS011;40072;50.958;3.592;2022-09-25T09:10:31;4.47;;;1.85;;
54167;SDS011;40072;50.958;3.592;2022-09-25T09:13:08;6.50;;;1.90;;
54167;SDS011;40072;50.958;3.592;2022-09-25T09:15:53;4.63;;;1.55;;
54167;SDS011;40072;50.958;3.592;2022-09-25T09:18:27;4.00;;;1.50;;
54167;SDS011;40072;50.958;3.592;2022-09-25T09:20:58;10.10;;;1.92;;
54167;SDS011;40072;50.958;3.592;2022-09-25T09:35:40;6.18;;;1.25;;
54167;SDS011;40072;50.958;3.592;2022-09-25T09:46:38;3.58;;;0.80;;
54167;SDS011;40072;50.958;3.592;2022-09-25T09:52:12;4.72;;;0.90;;
54167;SDS011;40072;50.958;3.592;2022-09-25T09:57:51;2.67;;;1.00;;
54167;SDS011;40072;50.958;3.592;2022-09-25T10:00:19;4.45;;;0.82;;
54167;SDS011;40072;50.958;3.592;2022-09-25T10:03:03;2.58;;;0.80;;
54167;SDS011;40072;50.958;3.592;2022-09-25T10:05:36;2.08;;;0.73;;
54167;SDS011;40072;50.958;3.592;2022-09-25T10:08:10;1.67;;;0.40;;
54167;SDS011;40072;50.958;3.592;2022-09-25T10:10:37;8.48;;;0.80;;
54167;SDS011;40072;50.958;3.592;2022-09-25T10:13:12;3.20;;;0.73;;
54167;SDS011;40072;50.958;3.592;2022-09-25T10:15:58;2.13;;;0.60;;
54167;SDS011;40072;50.958;3.592;2022-09-25T10:21:18;3.40;;;1.00;;
54167;SDS011;40072;50.958;3.592;2022-09-25T10:23:51;5.40;;;1.00;;
54167;SDS011;40072;50.958;3.592;2022-09-25T10:26:26;3.10;;;0.98;;
54167;SDS011;40072;50.958;3.592;2022-09-25T10:28:58;2.60;;;1.02;;
54167;SDS011;40072;50.958;3.592;2022-09-25T10:31:29;2.38;;;1.10;;
54167;SDS011;40072;50.958;3.592;2022-09-25T10:34:03;2.70;;;0.60;;
54167;SDS011;40072;50.958;3.592;2022-09-25T10:36:35;3.23;;;0.80;;
54167;SDS011;40072;50.958;3.592;2022-09-25T10:39:04;4.90;;;0.80;;
54167;SDS011;40072;50.958;3.592;2022-09-25T10:41:43;4.07;;;0.77;;
54167;SDS011;40072;50.958;3.592;2022-09-25T10:44:19;5.32;;;0.65;;
54167;SDS011;40072;50.958;3.592;2022-09-25T10:46:57;2.58;;;0.68;;
54167;SDS011;40072;50.958;3.592;2022-09-25T10:50:23;2.92;;;0.70;;
54167;SDS011;40072;50.958;3.592;2022-09-25T10:52:51;4.95;;;0.80;;
54167;SDS011;40072;50.958;3.592;2022-09-25T10:55:33;3.25;;;0.90;;
54167;SDS011;40072;50.958;3.592;2022-09-25T11:00:27;5.22;;;0.80;;
54167;SDS011;40072;50.958;3.592;2022-09-25T11:02:54;3.22;;;1.13;;
54167;SDS011;40072;50.958;3.592;2022-09-25T11:05:25;5.03;;;0.90;;
54167;SDS011;40072;50.958;3.592;2022-09-25T11:07:58;3.70;;;0.75;;
54167;SDS011;40072;50.958;3.592;2022-09-25T11:10:30;7.80;;;3.80;;
54167;SDS011;40072;50.958;3.592;2022-09-25T11:13:00;8.18;;;5.05;;
54167;SDS011;40072;50.958;3.592;2022-09-25T11:15:32;1.70;;;1.30;;
54167;SDS011;40072;50.958;3.592;2022-09-25T11:18:00;1.87;;;0.80;;
54167;SDS011;40072;50.958;3.592;2022-09-25T11:20:30;5.25;;;1.25;;
54167;SDS011;40072;50.958;3.592;2022-09-25T11:33:44;3.05;;;1.00;;
54167;SDS011;40072;50.958;3.592;2022-09-25T11:38:48;4.15;;;1.73;;
54167;SDS011;40072;50.958;3.592;2022-09-25T11:41:44;1.63;;;0.82;;
54167;SDS011;40072;50.958;3.592;2022-09-25T11:49:20;2.47;;;0.90;;
54167;SDS011;40072;50.958;3.592;2022-09-25T12:32:47;6.35;;;4.68;;
54167;SDS011;40072;50.958;3.592;2022-09-25T12:49:36;5.43;;;1.17;;
54167;SDS011;40072;50.958;3.592;2022-09-25T12:58:09;3.13;;;1.33;;
54167;SDS011;40072;50.958;3.592;2022-09-25T13:00:52;3.85;;;0.90;;
54167;SDS011;40072;50.958;3.592;2022-09-25T13:03:31;1.70;;;1.27;;
54167;SDS011;40072;50.958;3.592;2022-09-25T13:06:12;4.63;;;0.80;;
54167;SDS011;40072;50.958;3.592;2022-09-25T13:11:37;2.50;;;0.80;;
54167;SDS011;40072;50.958;3.592;2022-09-25T13:14:22;3.28;;;0.70;;
54167;SDS011;40072;50.958;3.592;2022-09-25T13:16:58;1.30;;;0.30;;
54167;SDS011;40072;50.958;3.592;2022-09-25T13:22:01;1.70;;;0.52;;
54167;SDS011;40072;50.958;3.592;2022-09-25T13:25:10;5.05;;;0.50;;
54167;SDS011;40072;50.958;3.592;2022-09-25T13:27:37;1.48;;;0.60;;
54167;SDS011;40072;50.958;3.592;2022-09-25T13:30:20;4.03;;;0.38;;
54167;SDS011;40072;50.958;3.592;2022-09-25T13:32:52;1.15;;;0.40;;
54167;SDS011;40072;50.958;3.592;2022-09-25T13:35:26;0.85;;;0.40;;
54167;SDS011;40072;50.958;3.592;2022-09-25T13:41:10;1.73;;;0.70;;
54167;SDS011;40072;50.958;3.592;2022-09-25T13:43:37;3.15;;;0.93;;
54167;SDS011;40072;50.958;3.592;2022-09-25T13:48:42;1.73;;;0.73;;
54167;SDS011;40072;50.958;3.592;2022-09-25T13:56:36;2.92;;;0.80;;
54167;SDS011;40072;50.958;3.592;2022-09-25T14:06:38;1.73;;;0.50;;
54167;SDS011;40072;50.958;3.592;2022-09-25T14:09:09;3.40;;;0.70;;
54167;SDS011;40072;50.958;3.592;2022-09-25T14:11:37;0.40;;;0.40;;
54167;SDS011;40072;50.958;3.592;2022-09-25T14:14:10;2.27;;;0.97;;
54167;SDS011;40072;50.958;3.592;2022-09-25T14:16:47;1.25;;;0.50;;
54167;SDS011;40072;50.958;3.592;2022-09-25T14:19:16;3.72;;;0.70;;
54167;SDS011;40072;50.958;3.592;2022-09-25T14:21:45;2.78;;;0.70;;
54167;SDS011;40072;50.958;3.592;2022-09-25T14:24:18;1.83;;;0.68;;
54167;SDS011;40072;50.958;3.592;2022-09-25T14:26:46;3.13;;;0.75;;
54167;SDS011;40072;50.958;3.592;2022-09-25T14:29:14;1.60;;;0.70;;
54167;SDS011;40072;50.958;3.592;2022-09-25T14:48:16;3.38;;;0.63;;
54167;SDS011;40072;50.958;3.592;2022-09-25T14:50:47;2.53;;;0.70;;
54167;SDS011;40072;50.958;3.592;2022-09-25T14:53:22;2.38;;;0.85;;
54167;SDS011;40072;50.958;3.592;2022-09-25T14:56:02;5.50;;;0.85;;
54167;SDS011;40072;50.958;3.592;2022-09-25T14:58:33;2.50;;;0.60;;
54167;SDS011;40072;50.958;3.592;2022-09-25T15:01:06;1.80;;;0.65;;
54167;SDS011;40072;50.958;3.592;2022-09-25T15:03:40;2.08;;;0.60;;
54167;SDS011;40072;50.958;3.592;2022-09-25T15:06:11;1.35;;;0.70;;
54167;SDS011;40072;50.958;3.592;2022-09-25T15:08:38;4.20;;;0.70;;
54167;SDS011;40072;50.958;3.592;2022-09-25T15:11:12;1.80;;;0.80;;
54167;SDS011;40072;50.958;3.592;2022-09-25T15:13:39;2.47;;;0.75;;
54167;SDS011;40072;50.958;3.592;2022-09-25T15:16:09;3.63;;;1.00;;
54167;SDS011;40072;50.958;3.592;2022-09-25T15:19:00;3.67;;;1.05;;
54167;SDS011;40072;50.958;3.592;2022-09-25T15:21:33;4.85;;;0.82;;
54167;SDS011;40072;50.958;3.592;2022-09-25T15:24:02;13.50;;;3.33;;
54167;SDS011;40072;50.958;3.592;2022-09-25T15:26:30;2.28;;;0.90;;
54167;SDS011;40072;50.958;3.592;2022-09-25T15:28:58;2.88;;;1.05;;
54167;SDS011;40072;50.958;3.592;2022-09-25T15:31:24;8.35;;;1.33;;
54167;SDS011;40072;50.958;3.592;2022-09-25T15:34:03;3.85;;;1.20;;
54167;SDS011;40072;50.958;3.592;2022-09-25T15:36:36;2.42;;;1.05;;
54167;SDS011;40072;50.958;3.592;2022-09-25T15:39:07;4.45;;;1.25;;
54167;SDS011;40072;50.958;3.592;2022-09-25T15:41:41;9.47;;;1.23;;
54167;SDS011;40072;50.958;3.592;2022-09-25T15:44:41;2.97;;;1.20;;
54167;SDS011;40072;50.958;3.592;2022-09-25T15:47:00;3.95;;;1.02;;
54167;SDS011;40072;50.958;3.592;2022-09-25T15:49:33;2.20;;;1.30;;
54167;SDS011;40072;50.958;3.592;2022-09-25T15:52:21;1.88;;;0.82;;
54167;SDS011;40072;50.958;3.592;2022-09-25T15:55:04;6.75;;;1.15;;
54167;SDS011;40072;50.958;3.592;2022-09-25T15:57:36;2.80;;;1.23;;
54167;SDS011;40072;50.958;3.592;2022-09-25T16:00:06;1.85;;;0.80;;
54167;SDS011;40072;50.958;3.592;2022-09-25T16:03:00;5.18;;;0.85;;
54167;SDS011;40072;50.958;3.592;2022-09-25T16:05:48;1.35;;;0.50;;
54167;SDS011;40072;50.958;3.592;2022-09-25T16:10:48;2.45;;;1.17;;
54167;SDS011;40072;50.958;3.592;2022-09-25T16:13:26;2.25;;;1.05;;
54167;SDS011;40072;50.958;3.592;2022-09-25T16:15:52;1.67;;;0.93;;
54167;SDS011;40072;50.958;3.592;2022-09-25T16:20:56;1.80;;;0.52;;
54167;SDS011;40072;50.958;3.592;2022-09-25T16:24:01;2.72;;;0.80;;
54167;SDS011;40072;50.958;3.592;2022-09-25T16:26:38;1.30;;;0.50;;
54167;SDS011;40072;50.958;3.592;2022-09-25T16:29:22;16.15;;;12.98;;
54167;SDS011;40072;50.958;3.592;2022-09-25T16:31:50;4.47;;;2.78;;
54167;SDS011;40072;50.958;3.592;2022-09-25T16:34:22;11.75;;;10.65;;
54167;SDS011;40072;50.958;3.592;2022-09-25T16:36:51;4.78;;;1.40;;
54167;SDS011;40072;50.958;3.592;2022-09-25T16:39:24;3.10;;;0.57;;
54167;SDS011;40072;50.958;3.592;2022-09-25T16:44:45;1.23;;;0.57;;
54167;SDS011;40072;50.958;3.592;2022-09-25T16:47:17;3.33;;;0.82;;
54167;SDS011;40072;50.958;3.592;2022-09-25T16:49:44;4.15;;;0.80;;
54167;SDS011;40072;50.958;3.592;2022-09-25T16:52:16;4.65;;;1.27;;
54167;SDS011;40072;50.958;3.592;2022-09-25T16:54:47;3.33;;;1.40;;
54167;SDS011;40072;50.958;3.592;2022-09-25T16:57:17;5.65;;;1.85;;
54167;SDS011;40072;50.958;3.592;2022-09-25T16:59:44;5.68;;;1.83;;
54167;SDS011;40072;50.958;3.592;2022-09-25T17:04:48;4.53;;;1.60;;
54167;SDS011;40072;50.958;3.592;2022-09-25T17:07:15;2.88;;;0.98;;
54167;SDS011;40072;50.958;3.592;2022-09-25T17:09:42;3.55;;;1.10;;
54167;SDS011;40072;50.958;3.592;2022-09-25T17:12:09;4.72;;;1.30;;
54167;SDS011;40072;50.958;3.592;2022-09-25T17:14:42;3.03;;;1.02;;
54167;SDS011;40072;50.958;3.592;2022-09-25T17:17:08;7.15;;;1.65;;
54167;SDS011;40072;50.958;3.592;2022-09-25T17:19:34;5.03;;;1.63;;
54167;SDS011;40072;50.958;3.592;2022-09-25T17:22:00;4.88;;;1.20;;
54167;SDS011;40072;50.958;3.592;2022-09-25T17:24:26;2.85;;;1.05;;
54167;SDS011;40072;50.958;3.592;2022-09-25T17:26:54;4.80;;;0.95;;
54167;SDS011;40072;50.958;3.592;2022-09-25T17:29:20;12.25;;;4.35;;
54167;SDS011;40072;50.958;3.592;2022-09-25T17:31:46;15.02;;;8.05;;
54167;SDS011;40072;50.958;3.592;2022-09-25T17:34:19;6.90;;;4.25;;
54167;SDS011;40072;50.958;3.592;2022-09-25T17:36:49;5.07;;;2.30;;
54167;SDS011;40072;50.958;3.592;2022-09-25T17:39:15;2.53;;;1.13;;
54167;SDS011;40072;50.958;3.592;2022-09-25T17:41:42;5.80;;;1.30;;
54167;SDS011;40072;50.958;3.592;2022-09-25T17:44:09;11.13;;;1.30;;
54167;SDS011;40072;50.958;3.592;2022-09-25T17:46:40;3.40;;;1.20;;
54167;SDS011;40072;50.958;3.592;2022-09-25T17:49:06;4.13;;;1.10;;
54167;SDS011;40072;50.958;3.592;2022-09-25T17:51:32;6.43;;;1.90;;
54167;SDS011;40072;50.958;3.592;2022-09-25T17:53:58;3.67;;;1.98;;
54167;SDS011;40072;50.958;3.592;2022-09-25T17:56:26;8.98;;;1.95;;
54167;SDS011;40072;50.958;3.592;2022-09-25T17:58:54;3.67;;;1.30;;
54167;SDS011;40072;50.958;3.592;2022-09-25T18:01:24;5.28;;;1.83;;
54167;SDS011;40072;50.958;3.592;2022-09-25T18:03:52;8.80;;;1.60;;
54167;SDS011;40072;50.958;3.592;2022-09-25T18:06:20;2.95;;;1.05;;
54167;SDS011;40072;50.958;3.592;2022-09-25T18:08:46;5.10;;;1.30;;
54167;SDS011;40072;50.958;3.592;2022-09-25T18:11:13;11.65;;;1.48;;
54167;SDS011;40072;50.958;3.592;2022-09-25T18:13:40;7.78;;;1.60;;
54167;SDS011;40072;50.958;3.592;2022-09-25T18:16:06;1.85;;;0.88;;
54167;SDS011;40072;50.958;3.592;2022-09-25T18:18:55;5.90;;;1.63;;